Time;durP1;ratioP1;P1;durP2;ratioP2;P2;SDS_P1;SDS_P2;PMS_P1;PMS_P2;Temp;Humidity;BMP_temperature;BMP_pressure;BME280_temperature;BME280_humidity;BME280_pressure;Samples;Min_cycle;Max_cycle;Signal;HPM_P1;HPM_P2
2024/03/14 00:00:53;;;;;;;38.17;11.80;;;7.70;72.50;;;2.67;100.00;95547.09;4991977;28;20033;-53
2024/03/14 00:03:19;;;;;;;89.63;15.27;;;7.60;72.40;;;2.65;100.00;95545.69;4990639;28;20045;-58
2024/03/14 00:05:45;;;;;;;127.78;16.33;;;7.60;72.40;;;2.62;100.00;95541.66;4985113;28;20894;-55
2024/03/14 00:08:11;;;;;;;61.92;14.05;;;7.50;72.40;;;2.59;100.00;95534.19;4982346;28;20026;-54
2024/03/14 00:10:37;;;;;;;61.13;15.48;;;7.50;72.50;;;2.62;100.00;95535.59;4984707;28;20022;-57
2024/03/14 00:13:03;;;;;;;104.88;16.73;;;7.50;72.70;;;2.63;100.00;95530.09;4988220;28;20029;-58
2024/03/14 00:15:30;;;;;;;178.57;20.02;;;7.50;72.90;;;2.64;100.00;95525.69;4993704;28;20036;-55
2024/03/14 00:17:56;;;;;;;53.42;14.63;;;7.50;72.90;;;2.69;100.00;95534.50;4989853;28;20072;-59
2024/03/14 00:20:22;;;;;;;248.52;21.92;;;7.50;73.10;;;2.73;100.00;95524.38;4995785;28;20516;-56
2024/03/14 00:22:48;;;;;;;76.70;13.77;;;7.50;73.20;;;2.71;100.00;95529.03;4967807;28;20050;-54
2024/03/14 00:25:15;;;;;;;55.08;12.40;;;7.50;73.20;;;2.67;100.00;95527.88;4986822;28;20025;-54
2024/03/14 00:27:43;;;;;;;24.10;10.23;;;7.50;73.10;;;2.61;100.00;95523.47;4986873;28;20030;-53
2024/03/14 00:30:11;;;;;;;28.27;10.57;;;7.50;73.00;;;2.60;100.00;95524.47;4987791;28;20025;-55
2024/03/14 00:32:40;;;;;;;35.00;10.88;;;7.50;72.90;;;2.52;100.00;95534.25;4986880;28;20105;-54
2024/03/14 00:35:08;;;;;;;27.08;10.70;;;7.40;72.80;;;2.49;100.00;95528.63;4970113;28;20021;-54
2024/03/14 00:37:35;;;;;;;25.08;9.65;;;7.40;72.70;;;2.53;100.00;95530.59;4988233;28;20373;-57
2024/03/14 00:40:01;;;;;;;22.88;8.35;;;7.40;72.90;;;2.53;100.00;95538.50;4991026;28;20021;-55
2024/03/14 00:42:27;;;;;;;24.83;8.40;;;7.40;72.80;;;2.48;100.00;95532.28;4987098;28;20172;-55
2024/03/14 00:44:53;;;;;;;17.98;8.38;;;7.30;72.70;;;2.42;100.00;95526.06;4991917;28;20045;-55
2024/03/14 00:47:20;;;;;;;14.98;7.00;;;7.30;72.70;;;2.41;100.00;95524.44;4989845;28;20384;-57
2024/03/14 00:49:47;;;;;;;18.85;8.10;;;7.30;72.70;;;2.35;100.00;95525.31;4979626;28;20025;-56
2024/03/14 00:52:13;;;;;;;22.35;8.13;;;7.20;72.60;;;2.32;100.00;95520.47;4991388;28;20029;-55
2024/03/14 00:54:39;;;;;;;41.63;10.05;;;7.20;72.60;;;2.30;100.00;95530.41;4988163;28;20033;-58
2024/03/14 00:57:06;;;;;;;31.17;9.13;;;7.20;72.70;;;2.29;100.00;95528.78;4985717;28;20045;-53
2024/03/14 00:59:32;;;;;;;19.88;8.40;;;7.20;72.70;;;2.28;100.00;95529.78;4987847;28;20022;-55
2024/03/14 01:01:58;;;;;;;14.85;8.15;;;7.10;72.70;;;2.26;100.00;95531.84;4986232;28;20026;-53
2024/03/14 01:04:24;;;;;;;13.07;6.80;;;7.10;72.80;;;2.23;100.00;95532.28;4990340;28;20507;-52
2024/03/14 01:06:52;;;;;;;20.73;7.88;;;7.10;72.80;;;2.19;100.00;95525.81;4984877;28;20022;-58
2024/03/14 01:09:24;;;;;;;17.83;8.07;;;7.10;72.70;;;2.15;100.00;95519.38;4987481;28;20109;-57
2024/03/14 01:11:53;;;;;;;29.80;8.83;;;7.00;72.60;;;2.09;100.00;95526.28;4983257;28;20037;-58
2024/03/14 01:14:20;;;;;;;26.63;9.25;;;7.00;72.60;;;2.07;100.00;95520.47;4984616;28;20280;-56
2024/03/14 01:16:49;;;;;;;34.03;9.02;;;7.00;72.70;;;2.06;100.00;95517.00;4984676;28;20069;-55
2024/03/14 01:19:16;;;;;;;72.18;10.93;;;6.90;73.40;;;2.03;100.00;95514.78;4986499;28;20050;-54
2024/03/14 01:21:43;;;;;;;36.08;9.57;;;6.90;72.70;;;2.04;100.00;95508.53;4965686;28;20041;-58
2024/03/14 01:24:09;;;;;;;30.30;9.05;;;6.90;72.90;;;1.99;100.00;95516.25;4961411;28;20038;-54
2024/03/14 01:26:34;;;;;;;76.43;10.70;;;6.90;72.90;;;2.04;100.00;95511.16;4962607;28;20401;-56
2024/03/14 01:29:01;;;;;;;115.28;12.88;;;6.90;73.00;;;2.11;100.00;95510.31;4965466;28;20030;-53
2024/03/14 01:31:29;;;;;;;45.92;9.05;;;6.90;73.20;;;2.16;100.00;95511.28;4965143;28;20096;-54
2024/03/14 01:33:54;;;;;;;253.60;17.27;;;6.90;73.40;;;2.20;100.00;95496.69;4962179;28;20141;-53
2024/03/14 01:36:20;;;;;;;291.27;18.60;;;7.00;73.50;;;2.25;100.00;95499.47;4962684;28;20446;-58
2024/03/14 01:38:46;;;;;;;276.85;16.65;;;7.00;73.60;;;2.28;100.00;95493.00;4963147;28;20018;-52
2024/03/14 01:41:21;;;;;;;251.52;16.73;;;7.00;73.70;;;2.34;100.00;95492.13;4966847;28;20113;-51
2024/03/14 01:44:13;;;;;;;425.83;25.77;;;7.10;73.90;;;2.44;100.00;95489.81;4971398;28;20015;-52
2024/03/14 01:46:39;;;;;;;342.03;19.30;;;7.20;74.00;;;2.50;100.00;95488.97;4962097;28;20043;-49
2024/03/14 01:49:05;;;;;;;361.30;20.73;;;7.10;73.90;;;2.58;100.00;95487.09;4962093;28;20023;-57
2024/03/14 01:51:31;;;;;;;232.50;15.32;;;7.20;74.00;;;2.65;100.00;95479.94;4964127;28;20029;-51
2024/03/14 01:53:57;;;;;;;288.38;18.48;;;7.30;74.10;;;2.72;100.00;95470.94;4963795;28;20019;-50
2024/03/14 01:56:24;;;;;;;465.15;27.70;;;7.30;74.20;;;2.77;100.00;95472.94;4963313;28;20073;-51
2024/03/14 01:58:53;;;;;;;279.92;18.08;;;7.40;74.30;;;2.82;100.00;95473.09;4965268;28;20027;-52
2024/03/14 02:01:23;;;;;;;154.77;12.75;;;7.50;74.30;;;2.82;100.00;95482.78;4966172;28;20045;-51
2024/03/14 02:04:23;;;;;;;114.10;10.30;;;7.50;74.30;;;2.87;100.00;95481.13;4968339;28;20022;-53
2024/03/14 02:07:08;;;;;;;119.22;9.95;;;7.60;74.10;;;2.88;100.00;95485.34;4984823;28;20058;-50
2024/03/14 02:09:36;;;;;;;253.00;14.82;;;7.60;74.00;;;2.86;100.00;95490.06;4965213;28;20018;-56
2024/03/14 02:12:05;;;;;;;120.70;11.30;;;7.60;73.90;;;2.83;100.00;95479.16;4963012;28;20426;-51
2024/03/14 02:14:31;;;;;;;235.88;14.27;;;7.60;73.60;;;2.76;100.00;95487.94;4965179;28;20117;-50
2024/03/14 02:17:04;;;;;;;456.17;20.25;;;7.60;73.50;;;2.70;100.00;95488.78;4954515;28;20471;-55
2024/03/14 02:19:32;;;;;;;282.05;14.05;;;7.50;73.30;;;2.63;100.00;95490.66;4962115;28;20113;-52
2024/03/14 02:22:01;;;;;;;324.00;16.35;;;7.50;73.10;;;2.55;100.00;95477.81;4961036;28;20126;-49
2024/03/14 02:24:27;;;;;;;371.20;20.10;;;7.50;73.00;;;2.47;100.00;95476.25;4979240;28;20038;-51
2024/03/14 02:26:56;;;;;;;438.98;25.48;;;7.40;72.90;;;2.42;100.00;95476.09;4977483;28;20033;-53
2024/03/14 02:29:22;;;;;;;83.13;11.20;;;7.40;72.90;;;2.34;100.00;95462.41;4985637;28;20022;-49
2024/03/14 02:31:51;;;;;;;208.23;13.90;;;7.30;72.80;;;2.28;100.00;95466.72;4976070;28;20029;-53
2024/03/14 02:34:19;;;;;;;19.17;5.85;;;7.20;72.80;;;2.25;100.00;95459.25;4984052;28;20029;-52
2024/03/14 02:36:45;;;;;;;65.03;7.25;;;7.20;72.80;;;2.20;100.00;95459.09;4981256;28;20080;-51
2024/03/14 02:39:14;;;;;;;45.35;7.10;;;7.10;72.70;;;2.13;100.00;95464.41;4980874;28;20030;-53
2024/03/14 02:41:40;;;;;;;66.32;7.80;;;7.10;72.70;;;2.08;100.00;95467.69;4983983;28;20112;-53
2024/03/14 02:44:18;;;;;;;66.18;7.47;;;7.10;72.80;;;1.99;100.00;95466.31;4990435;28;20128;-53
2024/03/14 02:46:45;;;;;;;9.25;5.00;;;7.00;72.70;;;1.99;100.00;95465.53;4984739;28;20049;-51
2024/03/14 02:49:15;;;;;;;130.40;9.75;;;7.00;72.70;;;1.97;100.00;95457.84;4985849;28;20026;-50
2024/03/14 02:51:45;;;;;;;166.60;11.10;;;6.90;72.70;;;1.97;100.00;95454.41;4981326;28;20037;-51
2024/03/14 02:54:15;;;;;;;7.93;4.72;;;6.90;72.70;;;1.92;100.00;95456.91;4964553;28;20113;-54
2024/03/14 02:56:49;;;;;;;8.55;3.78;;;6.90;72.70;;;1.82;100.00;95457.38;4963716;28;20030;-54
2024/03/14 02:59:16;;;;;;;10.10;4.40;;;6.80;72.60;;;1.76;100.00;95459.03;4986935;28;20033;-52
2024/03/14 03:01:42;;;;;;;19.15;5.53;;;6.80;72.50;;;1.69;100.00;95452.97;4965961;28;20357;-57
2024/03/14 03:04:09;;;;;;;102.95;8.45;;;6.70;72.40;;;1.63;100.00;95453.84;4983820;28;20076;-51
2024/03/14 03:06:36;;;;;;;34.67;6.68;;;6.70;72.60;;;1.59;100.00;95452.66;4996687;28;20575;-53
2024/03/14 03:09:05;;;;;;;25.02;6.55;;;6.60;72.60;;;1.59;100.00;95450.03;4992793;28;20018;-51
2024/03/14 03:11:33;;;;;;;46.50;7.55;;;6.60;72.70;;;1.57;100.00;95459.94;4981024;28;20034;-54
2024/03/14 03:13:59;;;;;;;16.92;5.95;;;6.60;72.90;;;1.58;100.00;95458.94;4983166;28;20045;-51
2024/03/14 03:16:25;;;;;;;11.55;5.40;;;6.60;73.00;;;1.58;100.00;95464.19;4986594;28;20029;-50
2024/03/14 03:18:51;;;;;;;46.72;7.20;;;6.50;73.00;;;1.54;100.00;95463.00;4983372;28;20025;-51
2024/03/14 03:21:18;;;;;;;57.45;7.47;;;6.50;73.10;;;1.53;100.00;95469.25;4983862;28;20025;-51
2024/03/14 03:23:44;;;;;;;18.80;5.35;;;6.50;73.00;;;1.50;100.00;95462.59;4973620;28;20488;-52
2024/03/14 03:26:10;;;;;;;14.85;6.70;;;6.50;72.90;;;1.50;100.00;95467.03;4988035;28;20036;-51
2024/03/14 03:28:36;;;;;;;74.93;7.22;;;6.50;73.00;;;1.49;100.00;95462.81;4990236;28;20029;-51
2024/03/14 03:31:08;;;;;;;15.40;6.30;;;6.40;73.00;;;1.46;100.00;95469.28;4989332;28;20048;-50
2024/03/14 03:33:34;;;;;;;10.02;5.40;;;6.40;73.00;;;1.42;100.00;95468.09;4989831;28;20487;-54
2024/03/14 03:36:04;;;;;;;12.90;5.03;;;6.40;72.90;;;1.42;100.00;95468.09;4971646;28;20036;-51
2024/03/14 03:38:33;;;;;;;23.55;5.10;;;6.40;73.00;;;1.42;100.00;95465.47;4989721;28;20025;-51
2024/03/14 03:41:01;;;;;;;12.10;5.30;;;6.40;73.00;;;1.39;100.00;95479.03;4972742;28;20029;-55
2024/03/14 03:43:26;;;;;;;14.40;5.00;;;6.40;72.90;;;1.41;100.00;95476.16;4987293;28;20444;-52
2024/03/14 03:45:57;;;;;;;21.48;6.28;;;6.40;72.90;;;1.40;100.00;95475.38;4989853;28;20033;-54
2024/03/14 03:48:24;;;;;;;16.42;5.85;;;6.40;72.90;;;1.39;100.00;95474.56;4988352;28;20026;-52
2024/03/14 03:50:51;;;;;;;13.63;5.57;;;6.40;72.90;;;1.34;100.00;95476.19;4990020;28;20097;-51
2024/03/14 03:53:17;;;;;;;71.22;8.23;;;6.40;72.90;;;1.36;100.00;95461.88;4972186;28;20121;-53
2024/03/14 03:55:43;;;;;;;42.28;6.75;;;6.40;73.00;;;1.35;100.00;95469.97;4971578;28;20045;-53
2024/03/14 03:58:09;;;;;;;131.77;10.55;;;6.40;73.00;;;1.33;100.00;95470.16;4989867;28;20185;-53
2024/03/14 04:00:44;;;;;;;150.80;11.35;;;6.30;72.90;;;1.39;100.00;95473.75;4972841;28;20027;-58
2024/03/14 04:03:16;;;;;;;150.82;12.10;;;6.40;73.10;;;1.36;100.00;95467.13;4992596;28;20087;-51
2024/03/14 04:05:43;;;;;;;180.23;11.63;;;6.40;73.20;;;1.43;100.00;95469.69;4985173;28;20108;-52
2024/03/14 04:08:09;;;;;;;443.75;20.25;;;6.40;73.20;;;1.44;100.00;95470.50;4987953;28;20435;-50
2024/03/14 04:10:35;;;;;;;307.80;17.45;;;6.40;73.20;;;1.43;100.00;95474.94;4990443;28;20192;-52
2024/03/14 04:13:01;;;;;;;158.07;12.02;;;6.40;73.20;;;1.45;100.00;95470.31;4988758;28;20112;-55
2024/03/14 04:15:30;;;;;;;232.68;13.30;;;6.50;73.30;;;1.46;100.00;95468.47;4990544;28;20028;-54
2024/03/14 04:17:57;;;;;;;274.38;18.15;;;6.50;73.30;;;1.46;100.00;95463.22;4989590;28;20480;-50
2024/03/14 04:20:27;;;;;;;287.50;15.80;;;6.50;73.30;;;1.49;100.00;95463.59;4988630;28;20053;-56
2024/03/14 04:22:54;;;;;;;363.25;20.77;;;6.60;73.30;;;1.52;100.00;95463.19;4990199;28;20464;-51
2024/03/14 04:25:20;;;;;;;402.70;20.65;;;6.60;73.30;;;1.54;100.00;95465.63;4989346;28;20066;-52
2024/03/14 04:27:53;;;;;;;275.55;15.75;;;6.60;73.30;;;1.59;100.00;95457.91;4990573;28;20018;-50
2024/03/14 04:30:21;;;;;;;352.92;19.73;;;6.60;73.30;;;1.60;100.00;95456.91;4989529;28;20018;-49
2024/03/14 04:32:50;;;;;;;180.88;12.60;;;6.60;73.30;;;1.58;100.00;95454.47;4975595;28;20496;-49
2024/03/14 04:35:20;;;;;;;247.60;15.05;;;6.60;73.30;;;1.60;100.00;95462.97;4977020;28;20055;-51
2024/03/14 04:37:49;;;;;;;290.20;17.83;;;6.60;73.30;;;1.65;100.00;95456.25;4987966;28;20041;-52
2024/03/14 04:40:19;;;;;;;190.45;13.18;;;6.60;73.30;;;1.62;100.00;95462.72;4993983;28;20104;-51
2024/03/14 04:42:46;;;;;;;241.45;15.55;;;6.70;73.40;;;1.65;100.00;95472.00;4993441;28;20030;-54
2024/03/14 04:45:22;;;;;;;526.63;27.27;;;6.60;73.30;;;1.66;100.00;95477.06;4993776;28;20020;-52
2024/03/14 04:47:51;;;;;;;246.27;14.40;;;6.60;73.40;;;1.71;100.00;95473.78;4973802;28;20049;-53
2024/03/14 04:50:18;;;;;;;404.02;24.23;;;6.70;73.50;;;1.73;100.00;95471.78;4974095;28;20080;-55
2024/03/14 04:52:45;;;;;;;695.35;37.38;;;6.70;73.50;;;1.73;100.00;95472.56;4965606;28;20025;-53
2024/03/14 04:55:12;;;;;;;337.60;17.55;;;6.70;73.40;;;1.76;100.00;95472.16;4991366;28;20022;-55
2024/03/14 04:57:40;;;;;;;367.75;20.05;;;6.80;73.50;;;1.77;100.00;95462.44;4993581;28;20105;-54
2024/03/14 05:00:19;;;;;;;284.85;17.70;;;6.80;73.40;;;1.76;100.00;95463.47;4965808;28;20105;-53
2024/03/14 05:02:46;;;;;;;282.83;16.77;;;6.80;73.30;;;1.79;100.00;95469.09;4984060;28;20083;-51
2024/03/14 05:05:13;;;;;;;273.30;16.95;;;6.80;73.30;;;1.79;100.00;95474.34;4993341;28;20422;-51
2024/03/14 05:07:38;;;;;;;202.95;15.18;;;6.80;73.30;;;1.81;100.00;95471.50;4990574;28;20411;-52
2024/03/14 05:10:05;;;;;;;193.73;13.98;;;6.80;73.30;;;1.80;100.00;95480.41;4993445;28;20033;-51
2024/03/14 05:12:31;;;;;;;130.05;11.68;;;6.80;73.30;;;1.73;100.00;95474.41;4990678;28;20040;-54
2024/03/14 05:14:57;;;;;;;249.18;17.08;;;6.80;73.30;;;1.74;100.00;95476.00;4986734;28;20106;-52
2024/03/14 05:17:24;;;;;;;319.85;17.80;;;6.80;73.20;;;1.71;100.00;95484.28;4974188;28;20101;-50
2024/03/14 05:19:50;;;;;;;267.70;15.80;;;6.70;73.10;;;1.66;100.00;95479.69;4970261;28;20445;-52
2024/03/14 05:22:17;;;;;;;307.67;15.95;;;6.70;73.00;;;1.60;100.00;95476.09;4973107;28;20084;-54
2024/03/14 05:24:43;;;;;;;304.65;16.65;;;6.70;72.90;;;1.59;100.00;95471.03;4988138;28;20053;-50
2024/03/14 05:27:10;;;;;;;162.68;11.45;;;6.60;72.90;;;1.55;100.00;95475.09;4989513;28;20032;-51
2024/03/14 05:29:39;;;;;;;264.38;16.30;;;6.60;72.90;;;1.52;100.00;95470.25;4974204;28;20100;-55
2024/03/14 05:32:21;;;;;;;147.25;11.02;;;6.60;72.90;;;1.48;100.00;95469.09;4992640;28;20049;-53
2024/03/14 05:34:51;;;;;;;160.52;11.65;;;6.50;72.90;;;1.45;100.00;95475.56;4969537;28;20021;-53
2024/03/14 05:37:17;;;;;;;205.63;12.48;;;6.50;73.00;;;1.44;100.00;95473.94;4957432;28;20388;-52
2024/03/14 05:39:43;;;;;;;255.57;16.77;;;6.50;73.00;;;1.44;100.00;95481.81;4989236;28;20026;-52
2024/03/14 05:42:12;;;;;;;243.57;16.90;;;6.50;73.10;;;1.44;100.00;95481.81;4990855;28;20026;-53
2024/03/14 05:44:41;;;;;;;371.85;21.63;;;6.50;73.10;;;1.44;100.00;95479.19;4988049;28;20013;-50
2024/03/14 05:47:11;;;;;;;316.10;17.83;;;6.50;73.10;;;1.45;100.00;95470.31;4963807;28;20030;-50
2024/03/14 05:49:38;;;;;;;537.85;30.95;;;6.50;73.20;;;1.46;100.00;95469.28;4990209;28;20068;-51
2024/03/14 05:52:04;;;;;;;479.70;24.98;;;6.50;73.20;;;1.46;100.00;95471.91;4982140;28;20029;-54
2024/03/14 05:54:31;;;;;;;330.75;20.05;;;6.50;73.20;;;1.48;100.00;95469.88;4987302;28;20026;-52
2024/03/14 05:56:58;;;;;;;272.40;15.65;;;6.50;73.20;;;1.50;100.00;95467.03;4970408;28;20079;-54
2024/03/14 05:59:24;;;;;;;663.60;34.80;;;6.50;73.10;;;1.52;100.00;95467.63;4990497;28;20440;-52
2024/03/14 06:01:53;;;;;;;329.60;20.30;;;6.60;73.60;;;1.52;100.00;95468.44;4988440;28;20032;-52
2024/03/14 06:04:21;;;;;;;162.73;11.52;;;6.60;73.20;;;1.56;100.00;95458.31;4983706;28;20366;-51
2024/03/14 06:06:48;;;;;;;207.38;14.43;;;6.70;73.20;;;1.61;100.00;95455.88;4974613;28;20075;-54
2024/03/14 06:09:15;;;;;;;196.27;13.32;;;6.70;73.20;;;1.55;100.00;95462.78;4989372;28;20030;-53
2024/03/14 06:11:44;;;;;;;79.80;8.48;;;6.70;73.20;;;1.61;100.00;95463.75;4982502;28;20036;-56
2024/03/14 06:14:10;;;;;;;100.30;9.68;;;6.80;73.10;;;1.69;100.00;95467.94;4988648;28;20053;-50
2024/03/14 06:16:37;;;;;;;301.95;19.08;;;6.80;73.20;;;1.76;100.00;95463.47;4989223;28;20061;-52
2024/03/14 06:19:03;;;;;;;318.83;21.52;;;6.90;73.20;;;1.85;100.00;95470.88;4988965;28;20393;-49
2024/03/14 06:21:29;;;;;;;459.70;24.75;;;7.00;73.30;;;1.93;100.00;95469.81;4988925;28;20137;-52
2024/03/14 06:23:55;;;;;;;202.90;13.45;;;7.10;73.40;;;2.00;100.00;95475.00;4983579;28;20076;-52
2024/03/14 06:26:21;;;;;;;291.38;17.65;;;7.20;73.40;;;2.09;100.00;95473.72;4984835;28;20038;-54
2024/03/14 06:28:47;;;;;;;196.82;13.77;;;7.20;73.40;;;2.21;100.00;95476.47;4984029;28;20112;-51
2024/03/14 06:31:17;;;;;;;599.78;34.45;;;7.40;73.50;;;2.29;100.00;95484.09;4987637;28;20555;-51
2024/03/14 06:33:43;;;;;;;734.83;40.35;;;7.50;73.50;;;2.37;100.00;95478.56;4988262;28;20148;-49
2024/03/14 06:36:08;;;;;;;402.23;21.70;;;7.60;73.50;;;2.47;100.00;95475.44;4970411;28;20033;-50
2024/03/14 06:38:34;;;;;;;205.73;13.75;;;7.70;73.50;;;2.59;100.00;95476.34;4988429;28;20034;-54
2024/03/14 06:41:00;;;;;;;241.65;14.93;;;7.80;73.40;;;2.71;100.00;95484.31;4984482;28;20503;-53
2024/03/14 06:43:26;;;;;;;353.55;19.90;;;8.00;73.50;;;2.81;100.00;95481.19;4989345;28;20396;-52
2024/03/14 06:45:53;;;;;;;344.23;19.50;;;8.10;73.40;;;2.90;100.00;95487.78;4974607;28;20025;-56
2024/03/14 06:48:19;;;;;;;288.30;18.80;;;8.20;73.30;;;3.00;100.00;95486.25;4991120;28;20049;-52
2024/03/14 06:50:47;;;;;;;205.63;14.00;;;8.40;73.30;;;3.10;100.00;95490.19;4974342;28;20021;-55
2024/03/14 06:53:14;;;;;;;196.43;13.10;;;8.50;73.20;;;3.23;100.00;95497.97;4974175;28;20476;-51
2024/03/14 06:55:42;;;;;;;393.17;21.42;;;8.70;73.10;;;3.33;100.00;95492.97;4969335;28;20030;-51
2024/03/14 06:58:08;;;;;;;325.27;20.05;;;8.80;73.00;;;3.40;100.00;95485.78;4991225;28;20029;-52
2024/03/14 07:00:34;;;;;;;213.45;13.43;;;8.90;72.80;;;3.50;100.00;95481.81;4992700;28;20091;-53
2024/03/14 07:03:02;;;;;;;380.58;23.75;;;9.00;72.70;;;3.58;100.00;95486.78;4983951;28;20022;-52
2024/03/14 07:05:28;;;;;;;265.75;16.52;;;9.10;72.60;;;3.65;100.00;95490.94;4991769;28;20492;-53
2024/03/14 07:07:54;;;;;;;235.30;15.05;;;9.20;72.50;;;3.72;100.00;95489.00;4985887;28;20503;-54
2024/03/14 07:10:21;;;;;;;634.55;35.65;;;9.30;72.40;;;3.80;100.00;95500.28;4990792;28;20079;-51
2024/03/14 07:12:47;;;;;;;169.25;12.35;;;9.30;72.40;;;3.87;100.00;95495.72;4989559;28;20022;-51
2024/03/14 07:15:15;;;;;;;256.92;18.27;;;9.40;72.30;;;3.89;100.00;95502.38;4991272;28;20018;-51
2024/03/14 07:17:41;;;;;;;258.63;17.48;;;9.50;72.20;;;3.93;100.00;95498.25;4971568;28;20038;-50
2024/03/14 07:20:16;;;;;;;239.15;19.08;;;9.60;72.20;;;4.00;100.00;95494.72;4990430;28;20026;-50
2024/03/14 07:22:45;;;;;;;318.98;21.70;;;9.70;72.00;;;4.17;100.00;95496.50;4971054;28;20547;-54
2024/03/14 07:25:18;;;;;;;606.78;42.22;;;9.90;72.10;;;4.31;100.00;95489.19;4994156;28;20441;-58
2024/03/14 07:27:45;;;;;;;201.15;17.05;;;10.00;72.00;;;4.41;100.00;95494.69;4974151;28;20029;-54
2024/03/14 07:30:17;;;;;;;816.45;53.38;;;10.20;72.00;;;4.46;100.00;95496.66;4983087;28;20105;-60
2024/03/14 07:32:45;;;;;;;482.80;29.15;;;10.30;72.00;;;4.43;100.00;95491.03;4972235;28;20057;-54
2024/03/14 07:35:11;;;;;;;61.72;10.63;;;10.40;71.80;;;4.40;100.00;95492.28;4990941;28;20384;-55
2024/03/14 07:37:38;;;;;;;147.80;15.35;;;10.40;71.50;;;4.34;100.00;95498.47;4989012;28;20120;-51
2024/03/14 07:40:05;;;;;;;140.50;13.48;;;10.40;71.20;;;4.40;100.00;95500.19;4989880;28;20080;-54
2024/03/14 07:42:31;;;;;;;181.50;16.30;;;10.40;71.20;;;4.50;100.00;95497.81;4989575;28;20547;-54
2024/03/14 07:44:58;;;;;;;215.45;18.52;;;10.40;71.20;;;4.62;100.00;95503.88;4990016;28;20025;-55
2024/03/14 07:47:25;;;;;;;313.83;22.02;;;10.50;71.20;;;4.78;100.00;95496.31;4989988;28;20103;-55
2024/03/14 07:49:53;;;;;;;113.45;10.77;;;10.60;71.20;;;4.84;100.00;95501.47;4976130;28;20025;-56
2024/03/14 07:52:19;;;;;;;62.30;9.98;;;10.80;71.20;;;4.90;100.00;95498.97;4978725;28;20030;-54
2024/03/14 07:54:47;;;;;;;165.60;13.77;;;10.80;71.10;;;5.02;100.00;95503.19;4993737;28;20029;-54
2024/03/14 07:57:15;;;;;;;73.50;12.35;;;10.90;71.10;;;5.14;100.00;95511.13;4990600;28;20388;-55
2024/03/14 07:59:42;;;;;;;91.47;12.05;;;11.10;71.20;;;5.20;100.00;95515.47;4988912;28;20385;-55
2024/03/14 08:02:12;;;;;;;107.75;13.05;;;11.20;71.20;;;5.26;100.00;95517.16;4989358;28;20030;-55
2024/03/14 08:04:47;;;;;;;28.20;8.50;;;11.30;71.10;;;5.43;100.00;95519.91;4987303;28;20028;-55
2024/03/14 08:07:17;;;;;;;21.30;8.35;;;11.40;70.80;;;5.61;100.00;95518.13;4989145;28;20037;-51
2024/03/14 08:09:44;;;;;;;17.77;7.45;;;11.50;70.90;;;5.74;100.00;95513.38;4993740;28;20029;-54
2024/03/14 08:12:10;;;;;;;21.50;7.50;;;11.70;70.90;;;5.86;100.00;95520.44;4993515;28;20098;-52
2024/03/14 08:14:36;;;;;;;16.60;6.68;;;11.90;71.00;;;5.94;100.00;95515.63;4993409;28;20100;-53
2024/03/14 08:17:11;;;;;;;15.25;5.90;;;12.00;70.80;;;6.10;100.00;95513.25;4994511;28;20026;-52
2024/03/14 08:19:38;;;;;;;13.25;6.38;;;12.20;70.60;;;6.36;100.00;95511.84;4994112;28;20018;-51
2024/03/14 08:22:06;;;;;;;15.48;6.80;;;12.40;70.50;;;6.59;100.00;95508.25;4993543;28;20021;-55
2024/03/14 08:24:46;;;;;;;13.38;5.95;;;12.80;70.70;;;6.83;100.00;95503.56;4992811;28;20037;-55
2024/03/14 08:27:12;;;;;;;8.35;4.57;;;13.20;70.60;;;7.06;100.00;95505.25;4994217;28;20105;-53
2024/03/14 08:29:40;;;;;;;7.65;4.40;;;13.60;70.30;;;7.17;100.00;95505.13;4994083;28;20490;-55
2024/03/14 08:32:09;;;;;;;8.52;4.07;;;13.70;70.10;;;7.35;100.00;95513.84;4993749;28;20064;-52
2024/03/14 08:34:35;;;;;;;7.63;4.05;;;14.00;69.80;;;7.60;100.00;95513.34;4975653;28;20026;-52
2024/03/14 08:37:03;;;;;;;4.63;3.25;;;14.40;69.50;;;7.95;100.00;95512.94;4992930;28;20025;-55
2024/03/14 08:39:29;;;;;;;6.65;3.60;;;14.80;69.30;;;8.27;100.00;95515.66;4977058;28;20052;-56
2024/03/14 08:41:57;;;;;;;3.75;3.00;;;15.20;69.10;;;8.60;100.00;95515.72;4993080;28;20032;-55
2024/03/14 08:44:28;;;;;;;3.17;2.88;;;15.50;68.90;;;8.85;100.00;95510.59;4992538;28;20014;-53
2024/03/14 08:46:55;;;;;;;4.47;2.92;;;15.80;68.60;;;8.89;100.00;95510.88;4993931;28;20049;-57
2024/03/14 08:49:22;;;;;;;3.33;2.50;;;16.10;68.10;;;9.19;100.00;95507.63;4989563;28;20022;-53
2024/03/14 08:51:50;;;;;;;3.88;2.10;;;16.40;67.70;;;9.58;100.00;95513.38;4993876;28;20036;-55
2024/03/14 08:56:52;;;;;;;2.97;2.58;;;16.90;67.00;;;9.90;100.00;95510.59;4977131;28;20281;-55
2024/03/14 08:59:20;;;;;;;3.20;2.90;;;17.00;66.70;;;9.73;100.00;95510.00;4993044;28;20025;-56
2024/03/14 09:01:46;;;;;;;3.85;3.45;;;17.00;66.30;;;9.74;100.00;95514.25;4988833;28;20030;-54
2024/03/14 09:04:12;;;;;;;4.85;3.28;;;17.10;65.90;;;9.96;100.00;95508.72;4972573;28;20028;-56
2024/03/14 09:06:42;;;;;;;3.85;3.35;;;17.10;65.50;;;10.21;100.00;95515.97;4987610;28;20029;-53
2024/03/14 09:09:23;;;;;;;6.13;4.60;;;17.30;65.20;;;10.39;100.00;95518.16;4987361;28;20022;-52
2024/03/14 09:11:51;;;;;;;4.93;3.95;;;17.50;65.30;;;10.70;100.00;95514.75;4990213;28;20385;-54
2024/03/14 09:14:16;;;;;;;5.32;3.28;;;17.90;65.60;;;11.08;97.84;95521.38;4989753;28;20018;-57
2024/03/14 09:16:44;;;;;;;3.10;2.80;;;18.20;65.40;;;11.32;93.29;95508.28;4991837;28;20040;-58
2024/03/14 09:19:13;;;;;;;5.72;2.83;;;18.60;65.10;;;11.68;90.97;95514.28;4970076;28;20025;-52
2024/03/14 09:21:40;;;;;;;3.38;2.38;;;18.90;64.80;;;11.81;87.60;95507.56;4983912;28;20049;-53
2024/03/14 09:24:09;;;;;;;1.70;1.60;;;19.30;64.10;;;12.19;86.11;95514.09;4984309;28;20404;-55
2024/03/14 09:26:36;;;;;;;1.60;1.50;;;19.60;62.60;;;12.59;79.54;95517.56;4991541;28;20122;-53
2024/03/14 09:29:02;;;;;;;1.88;1.73;;;19.90;60.90;;;12.84;78.12;95513.09;4982262;28;20026;-54
2024/03/14 09:31:28;;;;;;;2.20;2.00;;;20.20;59.80;;;13.21;77.62;95512.50;4990383;28;20033;-53
2024/03/14 09:33:54;;;;;;;3.28;2.03;;;20.60;59.00;;;13.52;75.88;95510.31;4989878;28;20122;-55
2024/03/14 09:36:20;;;;;;;2.30;1.63;;;20.90;58.10;;;13.92;73.01;95507.47;4984570;28;20061;-51
2024/03/14 09:38:46;;;;;;;1.88;1.73;;;21.20;57.30;;;14.18;72.00;95516.75;4989425;28;20101;-53
2024/03/14 09:41:17;;;;;;;1.90;1.65;;;21.50;56.60;;;14.62;69.10;95514.81;4983659;28;20037;-55
2024/03/14 09:43:44;;;;;;;1.90;1.75;;;21.90;55.40;;;14.76;68.50;95510.31;4990013;28;20028;-53
2024/03/14 09:46:17;;;;;;;3.28;1.95;;;22.10;54.90;;;15.11;69.34;95508.16;4975048;28;20021;-54
2024/03/14 09:48:45;;;;;;;1.95;1.85;;;22.40;53.90;;;15.28;64.93;95505.69;4969351;28;20448;-54
2024/03/14 09:51:16;;;;;;;1.88;1.77;;;22.70;53.50;;;15.48;64.75;95499.13;4975025;28;20479;-54
2024/03/14 09:53:47;;;;;;;1.85;1.75;;;23.00;52.70;;;15.62;65.38;95497.25;4973694;28;20021;-55
2024/03/14 09:56:13;;;;;;;1.98;1.88;;;23.20;52.20;;;15.82;66.06;95498.78;4989026;28;20033;-53
2024/03/14 09:58:39;;;;;;;3.10;1.98;;;23.40;51.40;;;16.11;62.50;95497.66;4991582;28;20047;-51
2024/03/14 10:01:10;;;;;;;2.40;1.77;;;23.50;50.70;;;16.35;61.78;95497.41;4990938;28;20053;-54
2024/03/14 10:03:41;;;;;;;2.20;2.00;;;23.70;50.10;;;16.47;60.80;95497.66;4966735;28;20021;-52
2024/03/14 10:06:17;;;;;;;2.15;1.98;;;23.90;49.80;;;16.51;58.94;95489.78;4986230;28;20018;-54
2024/03/14 10:08:50;;;;;;;4.05;2.25;;;24.10;48.90;;;16.66;57.93;95500.19;4983794;28;20025;-51
2024/03/14 10:11:20;;;;;;;3.10;2.60;;;24.30;48.20;;;16.72;60.74;95488.22;4982582;28;20041;-55
2024/03/14 10:13:47;;;;;;;2.72;2.45;;;24.50;47.90;;;16.83;58.53;95488.81;4989847;28;20032;-55
2024/03/14 10:16:18;;;;;;;2.70;2.40;;;24.70;47.80;;;16.67;57.81;95485.63;4982798;28;20425;-56
2024/03/14 10:18:46;;;;;;;2.55;2.35;;;24.80;46.90;;;16.65;58.45;95482.47;4993360;28;20518;-55